createdAt,value
2019-02-14T00:01:59.208Z,11.97
2019-02-14T00:04:27.850Z,13.97
2019-02-14T00:06:56.488Z,13.93
2019-02-14T00:09:25.153Z,11.57
2019-02-14T00:11:53.830Z,11.80
2019-02-14T00:14:22.452Z,11.07
2019-02-14T00:16:51.100Z,11.27
2019-02-14T00:19:19.864Z,12.67
2019-02-14T00:21:48.498Z,11.63
2019-02-14T00:24:17.257Z,11.50
2019-02-14T00:26:45.938Z,11.00
2019-02-14T00:29:14.836Z,10.63
2019-02-14T00:31:43.502Z,11.00
2019-02-14T00:34:12.254Z,11.03
2019-02-14T00:36:40.904Z,11.43
2019-02-14T00:39:09.781Z,15.07
2019-02-14T00:41:38.386Z,12.57
2019-02-14T00:44:07.276Z,12.80
2019-02-14T00:46:35.927Z,11.90
2019-02-14T00:49:04.679Z,11.07
2019-02-14T00:51:33.284Z,11.90
2019-02-14T00:54:02.224Z,10.93
2019-02-14T00:56:30.873Z,12.07
2019-02-14T00:58:59.567Z,12.77
2019-02-14T01:01:28.211Z,11.63
2019-02-14T01:03:57.207Z,12.77
2019-02-14T01:06:25.825Z,13.17
2019-02-14T01:08:54.509Z,11.93
2019-02-14T01:11:23.165Z,12.10
2019-02-14T01:13:52.019Z,11.93
2019-02-14T01:16:20.649Z,10.77
2019-02-14T01:18:52.795Z,12.37
2019-02-14T01:21:21.553Z,11.90
2019-02-14T01:23:50.204Z,12.97
2019-02-14T01:26:18.822Z,12.60
2019-02-14T01:28:47.449Z,14.27
2019-02-14T01:31:16.067Z,13.43
2019-02-14T01:33:44.773Z,13.87
2019-02-14T01:36:13.699Z,12.80
2019-02-14T01:38:42.341Z,12.70
2019-02-14T01:41:10.940Z,14.57
2019-02-14T01:43:39.670Z,12.60
2019-02-14T01:46:08.311Z,12.30
2019-02-14T01:48:37.190Z,12.20
2019-02-14T01:51:05.820Z,12.37
2019-02-14T01:53:34.609Z,16.17
2019-02-14T01:56:03.215Z,13.00
2019-02-14T01:58:31.829Z,12.77
2019-02-14T02:01:00.452Z,13.63
2019-02-14T02:03:29.063Z,14.63
2019-02-14T02:05:57.803Z,11.93
2019-02-14T02:08:26.549Z,11.50
2019-02-14T02:10:55.483Z,13.83
2019-02-14T02:13:24.135Z,13.17
2019-02-14T02:15:52.840Z,13.43
2019-02-14T02:18:21.659Z,12.77
2019-02-14T02:20:50.270Z,11.70
2019-02-14T02:23:18.887Z,13.90
2019-02-14T02:25:47.637Z,11.60
2019-02-14T02:28:16.245Z,12.47
2019-02-14T02:30:45.163Z,11.67
2019-02-14T02:33:13.771Z,11.80
2019-02-14T02:35:42.387Z,10.73
2019-02-14T02:38:11.041Z,9.93
2019-02-14T02:40:39.676Z,10.77
2019-02-14T02:43:08.385Z,10.27
2019-02-14T02:45:37.037Z,11.33
2019-02-14T02:48:05.785Z,10.53
2019-02-14T02:50:34.401Z,11.10
2019-02-14T02:53:03.268Z,10.43
2019-02-14T02:55:31.885Z,11.33
2019-02-14T02:58:00.492Z,11.53
2019-02-14T03:00:29.139Z,11.97
2019-02-14T03:02:57.781Z,13.27
2019-02-14T03:05:26.425Z,10.93
2019-02-14T03:07:55.079Z,11.30
2019-02-14T03:10:23.957Z,11.67
2019-02-14T03:12:52.565Z,10.30
2019-02-14T03:15:22.482Z,11.83
2019-02-14T03:17:51.092Z,11.20
2019-02-14T03:20:19.862Z,12.80
2019-02-14T03:22:48.532Z,13.43
2019-02-14T03:25:17.444Z,12.30
2019-02-14T03:27:46.073Z,10.87
2019-02-14T03:30:15.055Z,13.20
2019-02-14T03:32:43.805Z,12.50
2019-02-14T03:35:12.422Z,11.73
2019-02-14T03:37:41.061Z,11.30
2019-02-14T03:40:10.264Z,10.93
2019-02-14T03:42:38.898Z,12.63
2019-02-14T03:45:09.137Z,12.37
2019-02-14T03:47:37.776Z,12.13
2019-02-14T03:50:06.502Z,11.03
2019-02-14T03:52:35.132Z,11.80
2019-02-14T03:55:03.736Z,11.17
2019-02-14T03:57:32.367Z,11.50
2019-02-14T04:00:01.046Z,11.50
2019-02-14T04:02:29.728Z,12.97
2019-02-14T04:04:58.340Z,10.87
2019-02-14T04:07:27.196Z,9.93
2019-02-14T04:09:55.792Z,9.70
2019-02-14T04:12:24.488Z,11.67
2019-02-14T04:14:53.144Z,9.57
2019-02-14T04:17:21.775Z,10.83
2019-02-14T04:19:50.399Z,10.03
2019-02-14T04:22:19.002Z,11.00
2019-02-14T04:24:47.654Z,12.47
2019-02-14T04:27:16.306Z,11.83
2019-02-14T04:29:44.916Z,12.77
2019-02-14T04:32:13.555Z,10.93
2019-02-14T04:34:42.194Z,11.80
2019-02-14T04:37:11.056Z,12.00
2019-02-14T04:39:39.656Z,11.73
2019-02-14T04:42:08.406Z,11.30
2019-02-14T04:44:37.034Z,10.37
2019-02-14T04:47:05.645Z,12.97
2019-02-14T04:49:34.266Z,10.63
2019-02-14T04:52:02.872Z,11.93
2019-02-14T04:54:31.757Z,11.73
2019-02-14T04:57:00.403Z,9.47
2019-02-14T04:59:29.155Z,10.93
2019-02-14T05:01:57.786Z,10.47
2019-02-14T05:04:26.709Z,11.03
2019-02-14T05:06:55.402Z,10.83
2019-02-14T05:09:24.082Z,9.73
2019-02-14T05:11:52.708Z,11.33
2019-02-14T05:14:21.559Z,9.60
2019-02-14T05:16:50.161Z,9.37
2019-02-14T05:19:18.928Z,11.13
2019-02-14T05:21:47.532Z,10.13
2019-02-14T05:24:16.126Z,10.20
2019-02-14T05:26:44.742Z,9.93
2019-02-14T05:29:13.379Z,10.20
2019-02-14T05:31:42.216Z,10.07
2019-02-14T05:34:10.862Z,10.57
2019-02-14T05:36:39.847Z,9.67
2019-02-14T05:39:08.423Z,9.60
2019-02-14T05:41:37.161Z,9.70
2019-02-14T05:44:05.768Z,9.83
2019-02-14T05:46:34.646Z,9.87
2019-02-14T05:49:03.281Z,8.97
2019-02-14T05:51:32.183Z,10.07
2019-02-14T05:54:00.812Z,11.50
2019-02-14T05:56:29.519Z,10.70
2019-02-14T05:58:58.118Z,10.60
2019-02-14T06:01:26.896Z,10.10
2019-02-14T06:03:55.519Z,13.27
2019-02-14T06:06:24.393Z,11.57
2019-02-14T06:08:53.039Z,13.40
2019-02-14T06:11:21.940Z,14.13
2019-02-14T06:13:50.564Z,11.60
2019-02-14T06:16:19.459Z,13.63
2019-02-14T06:18:48.106Z,13.27
2019-02-14T06:21:16.890Z,13.80
2019-02-14T06:23:45.497Z,11.53
2019-02-14T06:26:14.402Z,13.53
2019-02-14T06:28:43.041Z,13.83
2019-02-14T06:31:11.802Z,11.90
2019-02-14T06:33:40.438Z,12.23
2019-02-14T06:36:09.289Z,13.20
2019-02-14T06:38:37.934Z,11.73
2019-02-14T06:41:06.803Z,13.17
2019-02-14T06:43:35.409Z,12.23
2019-02-14T06:46:04.267Z,11.33
2019-02-14T06:48:32.945Z,12.07
2019-02-14T06:51:01.618Z,11.63
2019-02-14T06:53:30.221Z,12.30
2019-02-14T06:55:58.842Z,14.33
2019-02-14T06:58:27.443Z,10.73
2019-02-14T07:00:56.062Z,13.57
2019-02-14T07:03:24.859Z,12.80
2019-02-14T07:05:53.471Z,12.60
2019-02-14T07:08:22.221Z,13.40
2019-02-14T07:10:50.947Z,12.30
2019-02-14T07:13:19.719Z,11.40
2019-02-14T07:15:48.319Z,14.20
2019-02-14T07:18:16.985Z,12.40
2019-02-14T07:20:45.639Z,14.27
2019-02-14T07:23:14.260Z,12.80
2019-02-14T07:25:43.091Z,12.80
2019-02-14T07:28:11.709Z,12.93
2019-02-14T07:30:40.399Z,12.93
2019-02-14T07:33:09.013Z,13.53
2019-02-14T07:35:37.599Z,13.37
2019-02-14T07:38:06.214Z,12.63
2019-02-14T07:40:34.873Z,13.70
2019-02-14T07:43:03.538Z,12.43
2019-02-14T07:45:32.154Z,11.80
2019-02-14T07:48:00.769Z,14.87
2019-02-14T07:50:29.405Z,12.37
2019-02-14T07:52:58.088Z,13.37
2019-02-14T07:55:26.852Z,9.67
2019-02-14T07:57:55.510Z,10.10
2019-02-14T08:00:24.198Z,11.07
2019-02-14T08:02:52.836Z,11.80
2019-02-14T08:05:21.467Z,10.73
2019-02-14T08:07:50.114Z,11.43
2019-02-14T08:10:18.874Z,10.33
2019-02-14T08:12:47.512Z,10.83
2019-02-14T08:15:16.107Z,11.87
2019-02-14T08:17:44.931Z,10.30
2019-02-14T08:20:13.592Z,9.63
2019-02-14T08:22:42.166Z,9.83
2019-02-14T08:25:11.186Z,11.40
2019-02-14T08:27:39.817Z,9.63
2019-02-14T08:30:09.382Z,9.67
2019-02-14T08:32:37.993Z,11.77
2019-02-14T08:35:06.757Z,11.47
2019-02-14T08:37:35.351Z,11.93
2019-02-14T08:40:04.018Z,10.50
2019-02-14T08:42:32.652Z,10.07
2019-02-14T08:45:01.549Z,10.30
2019-02-14T08:47:30.128Z,8.93
2019-02-14T08:49:58.875Z,9.67
2019-02-14T08:52:27.469Z,9.20
2019-02-14T08:54:56.415Z,9.93
2019-02-14T08:57:25.022Z,12.40
2019-02-14T08:59:53.852Z,8.93
2019-02-14T09:02:22.457Z,10.33
2019-02-14T09:04:51.258Z,9.90
2019-02-14T09:07:19.912Z,9.27
2019-02-14T09:09:48.504Z,9.30
2019-02-14T09:12:17.187Z,11.03
2019-02-14T09:14:45.848Z,9.90
2019-02-14T09:17:14.488Z,11.20
2019-02-14T09:19:43.110Z,10.73
2019-02-14T09:22:11.952Z,10.00
2019-02-14T09:24:40.550Z,9.87
2019-02-14T09:27:09.283Z,11.10
2019-02-14T09:29:37.888Z,10.13
2019-02-14T09:32:06.510Z,9.30
2019-02-14T09:34:36.655Z,9.13
2019-02-14T09:37:05.281Z,11.03
2019-02-14T09:39:40.782Z,9.47
2019-02-14T09:42:04.221Z,9.57
2019-02-14T09:44:33.028Z,8.73
2019-02-14T09:47:01.646Z,8.80
2019-02-14T09:49:30.387Z,8.93
2019-02-14T09:51:59.038Z,8.53
2019-02-14T09:54:27.608Z,10.27
2019-02-14T09:56:56.247Z,9.10
2019-02-14T09:59:24.828Z,8.50
2019-02-14T10:01:53.424Z,9.20
2019-02-14T10:04:22.036Z,7.60
2019-02-14T10:06:50.628Z,7.70
2019-02-14T10:09:19.238Z,9.43
2019-02-14T10:11:47.924Z,8.20
2019-02-14T10:14:16.807Z,7.83
2019-02-14T10:16:45.404Z,9.30
2019-02-14T10:19:14.328Z,8.10
2019-02-14T10:21:42.970Z,7.43
2019-02-14T10:24:11.796Z,7.53
2019-02-14T10:26:40.421Z,7.17
2019-02-14T10:29:09.210Z,6.63
2019-02-14T10:31:37.806Z,8.13
2019-02-14T10:34:06.430Z,9.47
2019-02-14T10:36:35.007Z,7.97
2019-02-14T10:39:04.712Z,8.83
2019-02-14T10:41:33.380Z,8.80
2019-02-14T10:44:01.970Z,10.43
2019-02-14T10:46:30.553Z,8.27
2019-02-14T10:48:59.148Z,8.80
2019-02-14T10:51:27.763Z,10.47
2019-02-14T10:53:56.653Z,10.50
2019-02-14T10:56:25.255Z,10.40
2019-02-14T10:58:53.848Z,8.43
2019-02-14T11:01:22.430Z,7.73
2019-02-14T11:03:51.053Z,8.30
2019-02-14T11:06:19.690Z,10.23
2019-02-14T11:08:48.275Z,8.07
2019-02-14T11:11:16.933Z,8.30
2019-02-14T11:13:45.680Z,7.83
2019-02-14T11:16:14.358Z,10.13
2019-02-14T11:18:44.550Z,6.60
2019-02-14T11:21:13.350Z,8.43
2019-02-14T11:23:41.953Z,10.03
2019-02-14T11:26:10.587Z,9.27
2019-02-14T11:28:39.182Z,8.77
2019-02-14T11:31:07.775Z,7.50
2019-02-14T11:33:36.399Z,9.27
2019-02-14T11:36:04.997Z,9.53
2019-02-14T11:38:40.464Z,7.73
2019-02-14T11:41:04.027Z,8.73
2019-02-14T11:43:32.608Z,7.53
2019-02-14T11:46:01.465Z,9.57
2019-02-14T11:48:30.096Z,10.17
2019-02-14T11:50:58.687Z,8.10
2019-02-14T11:53:29.282Z,11.57
2019-02-14T11:55:57.604Z,8.27
2019-02-14T11:58:26.189Z,8.33
2019-02-14T12:00:54.786Z,7.57
2019-02-14T12:03:23.404Z,11.27
2019-02-14T12:05:52.014Z,8.03
2019-02-14T12:08:20.616Z,9.13
2019-02-14T12:10:49.213Z,8.33
2019-02-14T12:13:17.871Z,7.63
2019-02-14T12:15:46.459Z,6.90
2019-02-14T12:18:15.171Z,7.70
2019-02-14T12:20:43.781Z,9.43
2019-02-14T12:23:12.373Z,7.67
2019-02-14T12:25:41.063Z,7.90
2019-02-14T12:28:09.676Z,10.83
2019-02-14T12:30:38.317Z,8.57
2019-02-14T12:33:06.927Z,8.10
2019-02-14T12:35:35.539Z,9.97
2019-02-14T12:38:04.477Z,6.20
2019-02-14T12:40:33.128Z,7.97
2019-02-14T12:43:01.846Z,6.07
2019-02-14T12:45:30.463Z,7.80
2019-02-14T12:47:59.339Z,8.97
2019-02-14T12:50:27.933Z,7.47
2019-02-14T12:52:56.552Z,6.17
2019-02-14T12:55:25.178Z,6.27
2019-02-14T12:57:53.773Z,7.43
2019-02-14T13:00:22.439Z,7.53
2019-02-14T13:02:51.043Z,7.77
2019-02-14T13:05:19.658Z,8.03
2019-02-14T13:07:48.298Z,9.27
2019-02-14T13:10:16.913Z,9.13
2019-02-14T13:12:45.620Z,7.37
2019-02-14T13:15:18.001Z,6.17
2019-02-14T13:17:46.619Z,6.53
2019-02-14T13:20:15.231Z,7.67
2019-02-14T13:22:43.835Z,8.90
2019-02-14T13:25:12.614Z,5.60
2019-02-14T13:27:41.192Z,7.47
2019-02-14T13:30:11.274Z,6.70
2019-02-14T13:32:39.873Z,7.30
2019-02-14T13:35:08.755Z,8.50
2019-02-14T13:37:37.373Z,6.87
2019-02-14T13:40:06.013Z,6.43
2019-02-14T13:42:34.623Z,8.47
2019-02-14T13:45:03.237Z,7.50
2019-02-14T13:47:31.903Z,8.20
2019-02-14T13:50:00.534Z,7.13
2019-02-14T13:52:29.123Z,8.13
2019-02-14T13:54:57.775Z,10.93
2019-02-14T13:57:26.408Z,10.93
2019-02-14T13:59:55.000Z,8.53
2019-02-14T14:02:23.607Z,8.73
2019-02-14T14:04:52.401Z,11.13
2019-02-14T14:07:21.018Z,10.77
2019-02-14T14:09:49.941Z,10.67
2019-02-14T14:12:18.557Z,9.83
2019-02-14T14:14:47.175Z,10.10
2019-02-14T14:17:15.793Z,10.93
2019-02-14T14:19:44.419Z,10.40
2019-02-14T14:22:13.089Z,11.17
2019-02-14T14:24:41.695Z,11.60
2019-02-14T14:27:10.405Z,10.30
2019-02-14T14:29:38.991Z,11.37
2019-02-14T14:32:07.591Z,10.57
2019-02-14T14:34:36.253Z,10.10
2019-02-14T14:37:04.873Z,11.40
2019-02-14T14:39:33.471Z,11.00
2019-02-14T14:42:03.303Z,10.63
2019-02-14T14:44:42.043Z,10.57
2019-02-14T14:47:14.162Z,9.67
2019-02-14T14:49:42.797Z,9.20
2019-02-14T14:52:11.479Z,11.07
2019-02-14T14:54:40.208Z,9.63
2019-02-14T14:57:08.903Z,10.07
2019-02-14T14:59:37.511Z,9.97
2019-02-14T15:02:06.139Z,10.87
2019-02-14T15:04:34.745Z,10.60
2019-02-14T15:07:03.371Z,10.13
2019-02-14T15:09:32.073Z,9.87
2019-02-14T15:12:00.687Z,11.27
2019-02-14T15:14:29.286Z,10.50
2019-02-14T15:16:57.909Z,11.93
2019-02-14T15:19:26.491Z,9.67
2019-02-14T15:21:55.107Z,10.70
2019-02-14T15:24:23.759Z,11.23
2019-02-14T15:26:52.436Z,12.10
2019-02-14T15:29:21.077Z,10.77
2019-02-14T15:31:49.727Z,11.20
2019-02-14T15:34:18.582Z,11.50
2019-02-14T15:36:49.397Z,10.43
2019-02-14T15:39:17.606Z,9.03
2019-02-14T15:41:46.195Z,10.37
2019-02-14T15:44:14.809Z,11.37
2019-02-14T15:46:43.423Z,10.07
2019-02-14T15:49:12.031Z,10.13
2019-02-14T15:51:41.975Z,9.43
2019-02-14T15:54:11.889Z,16.00
2019-02-14T15:56:40.581Z,8.33
2019-02-14T15:59:09.159Z,8.00
2019-02-14T16:01:39.582Z,8.73
2019-02-14T16:04:08.049Z,8.90
2019-02-14T16:06:36.645Z,8.93
2019-02-14T16:09:05.849Z,8.37
2019-02-14T16:11:36.432Z,7.67
2019-02-14T16:14:04.745Z,8.43
2019-02-14T16:16:33.367Z,8.70
2019-02-14T16:19:01.997Z,8.57
2019-02-14T16:21:31.635Z,8.33
2019-02-14T16:24:00.320Z,8.70
2019-02-14T16:26:28.926Z,8.83
2019-02-14T16:28:59.336Z,8.20
2019-02-14T16:31:27.857Z,8.33
2019-02-14T16:33:56.465Z,8.30
2019-02-14T16:36:25.153Z,9.27
2019-02-14T16:38:53.762Z,8.73
2019-02-14T16:41:22.365Z,10.97
2019-02-14T16:43:50.969Z,8.50
2019-02-14T16:46:19.590Z,7.67
2019-02-14T16:48:48.174Z,8.67
2019-02-14T16:51:16.765Z,9.07
2019-02-14T16:53:45.395Z,8.73
2019-02-14T16:56:13.995Z,7.57
2019-02-14T16:58:42.604Z,8.43
2019-02-14T17:01:11.214Z,10.63
2019-02-14T17:03:39.811Z,8.00
2019-02-14T17:06:08.424Z,8.30
2019-02-14T17:08:37.034Z,9.10
2019-02-14T17:11:05.616Z,9.03
2019-02-14T17:13:34.214Z,9.33
2019-02-14T17:16:02.876Z,10.80
2019-02-14T17:18:31.505Z,9.60
2019-02-14T17:21:00.130Z,10.03
2019-02-14T17:23:28.821Z,12.50
2019-02-14T17:25:57.426Z,13.77
2019-02-14T17:28:26.083Z,11.70
2019-02-14T17:30:54.726Z,14.47
2019-02-14T17:33:23.355Z,13.87
2019-02-14T17:35:51.969Z,13.20
2019-02-14T17:38:20.591Z,12.97
2019-02-14T17:40:49.273Z,11.87
2019-02-14T17:43:17.906Z,12.23
2019-02-14T17:45:46.788Z,12.50
2019-02-14T17:48:34.904Z,13.10
2019-02-14T17:54:36.821Z,11.60
2019-02-14T17:57:24.483Z,13.43
2019-02-14T18:00:13.910Z,13.00
2019-02-14T18:02:42.663Z,21.97
2019-02-14T18:05:30.354Z,21.13
2019-02-14T18:08:18.000Z,14.77
2019-02-14T18:11:07.093Z,17.27
2019-02-14T18:13:35.716Z,16.03
2019-02-14T18:16:04.336Z,13.20
2019-02-14T18:18:32.954Z,13.10
2019-02-14T18:21:01.567Z,13.70
2019-02-14T18:23:30.164Z,10.10
2019-02-14T18:25:58.779Z,12.83
2019-02-14T18:28:27.396Z,10.73
2019-02-14T18:30:55.992Z,10.60
2019-02-14T18:33:24.608Z,9.70
2019-02-14T18:35:53.192Z,12.10
2019-02-14T18:38:21.848Z,9.23
2019-02-14T18:40:50.468Z,10.37
2019-02-14T18:43:19.064Z,10.60
2019-02-14T18:45:47.648Z,11.57
2019-02-14T18:48:16.305Z,10.23
2019-02-14T18:50:45.042Z,11.73
2019-02-14T18:53:14.593Z,12.47
2019-02-14T18:55:43.231Z,11.00
2019-02-14T18:58:11.841Z,12.97
2019-02-14T19:00:40.450Z,14.37
2019-02-14T19:03:09.181Z,11.57
2019-02-14T19:05:37.776Z,11.93
2019-02-14T19:08:06.407Z,15.03
2019-02-14T19:10:35.017Z,13.63
2019-02-14T19:13:03.632Z,12.63
2019-02-14T19:15:32.324Z,14.60
2019-02-14T19:18:00.929Z,12.47
2019-02-14T19:20:29.534Z,12.83
2019-02-14T19:22:58.148Z,12.70
2019-02-14T19:25:29.433Z,13.33
2019-02-14T19:27:57.132Z,13.07
2019-02-14T19:30:28.752Z,12.97
2019-02-14T19:32:57.415Z,11.80
2019-02-14T19:35:26.111Z,12.63
2019-02-14T19:37:54.708Z,13.53
2019-02-14T19:40:23.330Z,13.20
2019-02-14T19:42:51.939Z,14.47
2019-02-14T19:45:20.544Z,14.43
2019-02-14T19:47:49.144Z,13.30
2019-02-14T19:50:17.787Z,15.37
2019-02-14T19:52:46.393Z,14.90
2019-02-14T19:55:15.000Z,14.67
2019-02-14T19:57:43.617Z,14.83
2019-02-14T20:00:12.298Z,15.70
2019-02-14T20:02:40.900Z,14.40
2019-02-14T20:05:09.760Z,15.13
2019-02-14T20:07:38.373Z,14.67
2019-02-14T20:10:07.757Z,14.63
2019-02-14T20:12:36.364Z,11.83
2019-02-14T20:15:05.392Z,11.27
2019-02-14T20:17:33.996Z,11.50
2019-02-14T20:20:02.604Z,14.60
2019-02-14T20:22:31.216Z,13.00
2019-02-14T20:24:59.893Z,12.77
2019-02-14T20:27:28.613Z,13.17
2019-02-14T20:29:57.219Z,11.70
2019-02-14T20:32:25.905Z,11.13
2019-02-14T20:34:54.569Z,13.03
2019-02-14T20:37:23.236Z,10.40
2019-02-14T20:39:51.852Z,11.40
2019-02-14T20:42:20.456Z,12.43
2019-02-14T20:44:49.068Z,12.27
2019-02-14T20:47:17.681Z,10.37
2019-02-14T20:49:46.364Z,12.17
2019-02-14T20:52:14.958Z,10.40
2019-02-14T20:54:43.676Z,11.37
2019-02-14T20:57:12.278Z,12.83
2019-02-14T20:59:40.880Z,14.20
2019-02-14T21:02:09.543Z,15.57
2019-02-14T21:04:38.152Z,14.67
2019-02-14T21:07:06.817Z,13.30
2019-02-14T21:09:35.459Z,14.43
2019-02-14T21:12:04.314Z,14.83
2019-02-14T21:14:32.993Z,14.80
2019-02-14T21:17:01.851Z,19.47
2019-02-14T21:19:30.460Z,14.37
2019-02-14T21:22:01.841Z,15.27
2019-02-14T21:24:29.384Z,15.23
2019-02-14T21:26:58.061Z,13.03
2019-02-14T21:29:26.722Z,13.17
2019-02-14T21:31:55.420Z,15.53
2019-02-14T21:34:24.099Z,15.30
2019-02-14T21:36:52.713Z,12.37
2019-02-14T21:39:21.320Z,12.70
2019-02-14T21:41:49.984Z,11.40
2019-02-14T21:44:18.686Z,13.20
2019-02-14T21:46:47.323Z,10.83
2019-02-14T21:49:15.924Z,10.80
2019-02-14T21:51:44.587Z,10.43
2019-02-14T21:54:17.029Z,11.13
2019-02-14T21:56:43.507Z,10.43
2019-02-14T21:59:12.162Z,9.67
2019-02-14T22:01:40.805Z,10.17
2019-02-14T22:04:09.415Z,11.30
2019-02-14T22:06:37.995Z,11.20
2019-02-14T22:09:06.627Z,12.40
2019-02-14T22:11:35.416Z,10.57
2019-02-14T22:14:04.097Z,13.40
2019-02-14T22:16:32.742Z,11.33
2019-02-14T22:19:01.405Z,12.30
2019-02-14T22:21:29.989Z,10.20
2019-02-14T22:23:58.613Z,11.53
2019-02-14T22:26:27.221Z,11.07
2019-02-14T22:28:55.837Z,11.93
2019-02-14T22:31:24.489Z,12.13
2019-02-14T22:33:53.095Z,10.47
2019-02-14T22:36:21.759Z,10.83
2019-02-14T22:38:50.399Z,10.07
2019-02-14T22:41:18.999Z,11.97
2019-02-14T22:43:47.602Z,11.80
2019-02-14T22:46:16.213Z,11.13
2019-02-14T22:48:44.811Z,13.17
2019-02-14T22:51:13.427Z,12.87
2019-02-14T22:53:42.009Z,12.70
2019-02-14T22:56:10.599Z,13.03
2019-02-14T22:58:39.373Z,13.07
2019-02-14T23:01:08.059Z,12.17
2019-02-14T23:03:36.651Z,12.50
2019-02-14T23:06:05.259Z,12.43
2019-02-14T23:08:33.844Z,12.03
2019-02-14T23:11:02.432Z,10.33
2019-02-14T23:13:31.037Z,9.97
2019-02-14T23:15:59.643Z,10.97
2019-02-14T23:18:28.283Z,9.80
2019-02-14T23:20:56.897Z,9.10
2019-02-14T23:23:25.787Z,10.77
2019-02-14T23:25:54.412Z,10.77
2019-02-14T23:28:23.171Z,12.43
2019-02-14T23:30:51.769Z,10.60
2019-02-14T23:33:20.376Z,12.77
2019-02-14T23:35:49.047Z,11.93
2019-02-14T23:38:17.629Z,12.43
2019-02-14T23:40:46.379Z,13.70
2019-02-14T23:43:15.007Z,12.67
2019-02-14T23:45:43.736Z,14.83
2019-02-14T23:48:12.348Z,16.03
2019-02-14T23:50:40.981Z,12.47
2019-02-14T23:53:09.567Z,11.73
2019-02-14T23:55:38.168Z,13.50
2019-02-14T23:58:06.777Z,10.87
